Time;durP1;ratioP1;P1;durP2;ratioP2;P2;SDS_P1;SDS_P2;PMS_P1;PMS_P2;Temp;Humidity;BMP_temperature;BMP_pressure;BME280_temperature;BME280_humidity;BME280_pressure;Samples;Min_cycle;Max_cycle;Signal;HPM_P1;HPM_P2
2022/10/18 00:00:02;;;;;;;0.60;0.60;;;;;;;9.17;82.12;101091.97;5030693;28;20205;-71
2022/10/18 00:02:29;;;;;;;0.70;0.70;;;;;;;9.11;82.68;101097.06;5030432;28;20221;-70
2022/10/18 00:04:56;;;;;;;0.60;0.60;;;;;;;9.08;82.98;101094.50;5025283;28;20212;-70
2022/10/18 00:07:22;;;;;;;0.60;0.60;;;;;;;9.08;82.92;101097.91;5030566;28;20232;-71
2022/10/18 00:09:49;;;;;;;0.77;0.77;;;;;;;9.05;82.82;101097.88;5018565;28;20258;-70
2022/10/18 00:12:17;;;;;;;0.83;0.83;;;;;;;9.06;82.20;101094.50;5010878;28;20221;-70
2022/10/18 00:14:44;;;;;;;0.60;0.60;;;;;;;9.05;82.77;101097.88;5010635;28;20213;-70
2022/10/18 00:17:11;;;;;;;1.00;1.00;;;;;;;9.05;82.93;101092.78;5016159;28;20581;-70
2022/10/18 00:19:38;;;;;;;0.60;0.60;;;;;;;9.04;82.49;101091.09;5015837;28;20197;-70
2022/10/18 00:22:05;;;;;;;0.70;0.70;;;;;;;9.02;82.46;101092.75;5023476;28;20205;-71
2022/10/18 00:24:31;;;;;;;0.60;0.60;;;;;;;8.98;82.63;101083.41;5014409;28;20206;-71
2022/10/18 00:26:58;;;;;;;0.60;0.60;;;;;;;8.83;82.57;101085.88;5027995;28;20553;-70
2022/10/18 00:29:26;;;;;;;0.70;0.70;;;;;;;8.63;83.33;101067.03;5027592;28;20210;-70
2022/10/18 00:31:53;;;;;;;0.80;0.80;;;;;;;8.65;83.15;101075.59;5014285;28;20194;-70
2022/10/18 00:34:20;;;;;;;0.70;0.70;;;;;;;8.62;83.36;101073.00;5029041;28;20197;-70
2022/10/18 00:36:47;;;;;;;0.63;0.63;;;;;;;8.59;83.10;101071.31;5016408;28;20202;-70
2022/10/18 00:39:16;;;;;;;0.60;0.60;;;;;;;8.58;83.48;101068.72;5014292;28;20206;-71
2022/10/18 00:41:43;;;;;;;0.67;0.67;;;;;;;8.64;83.59;101073.88;5014701;28;20194;-70
2022/10/18 00:44:43;;;;;;;0.70;0.70;;;;;;;8.64;82.62;101076.41;5014116;28;20343;-70
2022/10/18 00:47:15;;;;;;;1.13;1.13;;;;;;;8.63;82.75;101079.81;5012072;28;20201;-71
2022/10/18 00:49:44;;;;;;;0.50;0.50;;;;;;;8.64;82.80;101076.41;5015719;28;20209;-71
2022/10/18 00:52:15;;;;;;;0.70;0.70;;;;;;;8.58;82.71;101058.50;5006408;28;20213;-70
2022/10/18 00:54:44;;;;;;;0.60;0.60;;;;;;;8.59;82.10;101068.75;5015471;28;20577;-70
2022/10/18 00:57:12;;;;;;;0.50;0.50;;;;;;;8.60;82.39;101067.03;5033616;28;20197;-70
2022/10/18 00:59:40;;;;;;;0.60;0.60;;;;;;;8.61;82.41;101069.59;5033066;28;20725;-70
2022/10/18 01:02:08;;;;;;;0.60;0.60;;;;;;;8.59;82.43;101060.22;5033342;28;20654;-70
2022/10/18 01:04:36;;;;;;;0.73;0.73;;;;;;;8.61;82.80;101063.63;5022670;28;20247;-70
2022/10/18 01:07:11;;;;;;;0.70;0.70;;;;;;;8.61;82.74;101069.59;5025777;28;20230;-70
2022/10/18 01:09:41;;;;;;;0.60;0.60;;;;;;;8.59;82.52;101065.34;5020821;28;20289;-70
2022/10/18 01:12:21;;;;;;;0.67;0.67;;;;;;;8.59;82.58;101060.22;5013515;28;20209;-70
2022/10/18 01:14:54;;;;;;;0.60;0.60;;;;;;;8.59;83.05;101053.41;5013465;28;20229;-70
2022/10/18 01:17:29;;;;;;;0.60;0.60;;;;;;;8.53;82.59;101039.75;5013556;28;20222;-70
2022/10/18 01:20:29;;;;;;;0.60;0.60;;;;;;;8.56;82.94;101052.53;5013699;28;20272;-70
2022/10/18 01:23:03;;;;;;;0.60;0.60;;;;;;;8.54;82.36;101052.53;5013443;28;20221;-70
2022/10/18 01:25:42;;;;;;;0.80;0.80;;;;;;;8.51;82.77;101046.53;5013591;28;20303;-70
2022/10/18 01:28:30;;;;;;;0.70;0.70;;;;;;;8.52;82.74;101045.69;5012129;28;20194;-70
2022/10/18 01:31:00;;;;;;;0.50;0.50;;;;;;;8.46;82.44;101038.88;5013311;28;20274;-70
2022/10/18 01:33:36;;;;;;;0.63;0.63;;;;;;;8.48;82.18;101041.41;5013029;28;20206;-70
2022/10/18 01:36:07;;;;;;;0.80;0.80;;;;;;;8.47;82.50;101044.81;5013091;28;20206;-71
2022/10/18 01:38:36;;;;;;;0.73;0.73;;;;;;;8.31;82.80;101043.88;5013226;28;20202;-70
2022/10/18 01:41:05;;;;;;;1.93;1.40;;;;;;;8.29;82.70;101046.44;5012911;28;20196;-70
2022/10/18 01:43:34;;;;;;;0.50;0.50;;;;;;;8.28;82.92;101039.63;5011653;28;20226;-70
2022/10/18 01:46:04;;;;;;;0.60;0.60;;;;;;;8.28;82.90;101039.63;5012779;28;20605;-70
2022/10/18 01:48:32;;;;;;;0.63;0.63;;;;;;;8.25;82.95;101039.56;5012108;28;20198;-70
2022/10/18 01:50:59;;;;;;;0.50;0.50;;;;;;;8.25;83.13;101044.69;5013028;28;20197;-70
2022/10/18 01:53:29;;;;;;;0.60;0.60;;;;;;;8.23;83.05;101045.53;5012602;28;20198;-70
2022/10/18 01:56:20;;;;;;;0.57;0.57;;;;;;;8.20;83.52;101046.38;5012450;28;20202;-70
2022/10/18 01:58:55;;;;;;;0.60;0.60;;;;;;;8.14;83.36;101030.16;5007428;28;20665;-70
2022/10/18 02:01:31;;;;;;;0.60;0.60;;;;;;;8.19;83.14;101047.22;5012411;28;20217;-70
2022/10/18 02:04:07;;;;;;;0.60;0.60;;;;;;;8.16;83.84;101038.66;5014336;28;20220;-70
2022/10/18 02:06:40;;;;;;;0.70;0.70;;;;;;;8.16;83.67;101034.41;5026188;28;20263;-70
2022/10/18 02:09:11;;;;;;;0.53;0.53;;;;;;;8.17;83.67;101036.13;5026032;28;20194;-70
2022/10/18 02:11:40;;;;;;;0.50;0.50;;;;;;;8.19;83.31;101037.00;5012704;28;20229;-70
2022/10/18 02:14:11;;;;;;;0.60;0.60;;;;;;;8.13;83.99;101029.28;5026647;28;20198;-70
2022/10/18 02:16:41;;;;;;;0.57;0.57;;;;;;;8.10;83.90;101029.28;5031999;28;20206;-70
2022/10/18 02:19:14;;;;;;;0.60;0.60;;;;;;;8.07;83.85;101023.28;5016412;28;20200;-70
2022/10/18 02:21:43;;;;;;;0.70;0.70;;;;;;;8.14;84.51;101023.31;5013116;28;20198;-70
2022/10/18 02:24:12;;;;;;;0.43;0.43;;;;;;;7.99;83.87;101005.34;5017934;28;20221;-70
2022/10/18 02:26:40;;;;;;;0.50;0.50;;;;;;;8.08;83.67;101025.00;5027311;28;20217;-70
2022/10/18 02:29:07;;;;;;;0.50;0.50;;;;;;;8.00;84.27;101017.28;5012452;28;20206;-70
2022/10/18 02:31:39;;;;;;;0.90;0.90;;;;;;;7.94;84.21;101019.81;5030106;28;20209;-71
2022/10/18 02:34:16;;;;;;;0.60;0.60;;;;;;;7.97;84.16;101017.28;5031900;28;20263;-70
2022/10/18 02:36:46;;;;;;;0.70;0.70;;;;;;;7.98;83.82;101024.06;5013931;28;20214;-70
2022/10/18 02:39:16;;;;;;;0.60;0.60;;;;;;;7.91;84.08;101018.09;5012278;28;20213;-70
2022/10/18 02:41:44;;;;;;;0.60;0.60;;;;;;;7.92;84.01;101021.47;5011040;28;20213;-70
2022/10/18 02:44:11;;;;;;;0.73;0.73;;;;;;;7.83;84.03;101017.19;5007813;28;20232;-70
2022/10/18 02:46:39;;;;;;;0.60;0.60;;;;;;;7.79;84.17;101017.13;5011502;28;20208;-70
2022/10/18 02:49:06;;;;;;;0.50;0.50;;;;;;;7.82;84.03;101024.81;5011788;28;20202;-70
2022/10/18 02:51:34;;;;;;;0.67;0.67;;;;;;;7.78;84.08;101043.53;5011780;28;20205;-70
2022/10/18 02:54:01;;;;;;;0.60;0.60;;;;;;;7.74;84.47;101039.25;5011707;28;20666;-70
2022/10/18 02:56:28;;;;;;;0.70;0.70;;;;;;;7.70;84.80;101042.59;5011512;28;20202;-70
2022/10/18 02:58:54;;;;;;;0.67;0.67;;;;;;;7.70;84.71;101042.59;5010007;28;20202;-69
2022/10/18 03:01:21;;;;;;;0.53;0.53;;;;;;;7.68;84.91;101046.84;5011496;28;20198;-70
2022/10/18 03:03:48;;;;;;;0.60;0.60;;;;;;;7.68;84.88;101049.41;5011270;28;20214;-70
2022/10/18 03:06:15;;;;;;;0.50;0.50;;;;;;;7.64;84.61;101042.56;5022394;28;20668;-70
2022/10/18 03:08:43;;;;;;;1.00;1.00;;;;;;;7.63;84.74;101045.94;5012454;28;20198;-70
2022/10/18 03:11:10;;;;;;;0.60;0.60;;;;;;;7.63;84.91;101041.69;5011228;28;20621;-69
2022/10/18 03:13:37;;;;;;;0.60;0.60;;;;;;;7.62;84.80;101045.13;5011414;28;20594;-70
2022/10/18 03:16:04;;;;;;;0.60;0.60;;;;;;;7.58;85.07;101042.53;5012459;28;20206;-69
2022/10/18 03:18:30;;;;;;;0.57;0.57;;;;;;;7.58;84.86;101047.63;5019925;28;20555;-71
2022/10/18 03:20:57;;;;;;;0.60;0.60;;;;;;;7.45;85.08;101036.47;5030973;28;20578;-70
2022/10/18 03:23:24;;;;;;;0.70;0.70;;;;;;;7.44;85.59;101039.84;5024973;28;20218;-69
2022/10/18 03:25:52;;;;;;;0.60;0.60;;;;;;;7.47;85.21;101049.22;5013976;28;20588;-70
2022/10/18 03:28:19;;;;;;;0.67;0.67;;;;;;;7.45;85.78;101056.00;5009561;28;20208;-70
2022/10/18 03:30:46;;;;;;;0.50;0.50;;;;;;;7.48;85.58;101041.59;5011416;28;20206;-70
2022/10/18 03:33:13;;;;;;;0.70;0.70;;;;;;;7.49;85.88;101047.56;5010899;28;20697;-70
2022/10/18 03:35:40;;;;;;;0.60;0.60;;;;;;;7.49;85.80;101050.09;5011050;28;20204;-70
2022/10/18 03:38:06;;;;;;;0.60;0.60;;;;;;;7.44;85.73;101038.97;5010975;28;20206;-70
2022/10/18 03:40:33;;;;;;;0.60;0.60;;;;;;;7.37;85.52;101049.13;5010190;28;20206;-70
2022/10/18 03:43:01;;;;;;;0.70;0.70;;;;;;;7.31;86.18;101048.22;5010344;28;20725;-70
2022/10/18 03:45:28;;;;;;;0.70;0.70;;;;;;;7.32;86.24;101045.69;5021727;28;20685;-70
2022/10/18 03:47:55;;;;;;;0.50;0.50;;;;;;;7.30;86.73;101051.63;5030590;28;20202;-70
2022/10/18 03:50:22;;;;;;;0.50;0.50;;;;;;;7.27;86.52;101047.34;5017079;28;20582;-70
2022/10/18 03:52:49;;;;;;;0.60;0.60;;;;;;;7.24;87.00;101060.06;5014392;28;20208;-69
2022/10/18 03:55:16;;;;;;;0.70;0.70;;;;;;;7.18;87.32;101062.56;5017563;28;20669;-69
2022/10/18 03:57:42;;;;;;;0.60;0.60;;;;;;;7.09;87.80;101052.28;5034082;28;20201;-70
2022/10/18 04:00:12;;;;;;;0.60;0.60;;;;;;;7.01;88.09;101048.78;5014485;28;20582;-70
2022/10/18 04:02:39;;;;;;;0.73;0.73;;;;;;;7.04;88.63;101056.47;5014784;28;20198;-70
2022/10/18 04:05:07;;;;;;;0.57;0.57;;;;;;;7.02;88.59;101045.38;5015049;28;20232;-69
2022/10/18 04:07:34;;;;;;;0.70;0.70;;;;;;;6.95;88.63;101053.81;5034324;28;20197;-70
2022/10/18 04:10:01;;;;;;;0.60;0.60;;;;;;;6.94;88.72;101049.56;5034525;28;20201;-70
2022/10/18 04:12:27;;;;;;;0.53;0.53;;;;;;;6.88;89.25;101046.09;5034592;28;20661;-69
2022/10/18 04:14:54;;;;;;;0.70;0.70;;;;;;;6.90;89.17;101050.38;5036935;28;20194;-70
2022/10/18 04:17:22;;;;;;;0.70;0.70;;;;;;;6.91;89.36;101049.53;5034455;28;20683;-70
2022/10/18 04:19:49;;;;;;;0.63;0.63;;;;;;;6.86;88.78;101051.16;5034227;28;20208;-70
2022/10/18 04:22:16;;;;;;;0.70;0.70;;;;;;;6.80;89.38;101034.13;5034181;28;20212;-71
2022/10/18 04:24:43;;;;;;;0.97;0.97;;;;;;;6.91;88.83;101052.09;5034224;28;20696;-70
2022/10/18 04:27:10;;;;;;;0.80;0.80;;;;;;;6.96;89.04;101054.66;5034354;28;20201;-70
2022/10/18 04:29:36;;;;;;;0.70;0.70;;;;;;;6.97;88.37;101052.16;5029547;28;20200;-69
2022/10/18 04:32:03;;;;;;;0.57;0.57;;;;;;;6.99;88.29;101045.34;5032982;28;20197;-71
2022/10/18 04:34:31;;;;;;;0.60;0.60;;;;;;;6.99;87.76;101041.94;5034035;28;20197;-71
2022/10/18 04:36:58;;;;;;;0.60;0.60;;;;;;;6.98;87.83;101051.28;5033554;28;20201;-70
2022/10/18 04:39:25;;;;;;;0.80;0.80;;;;;;;6.93;88.10;101052.94;5031236;28;20293;-70
2022/10/18 04:41:52;;;;;;;0.60;0.60;;;;;;;6.94;88.04;101048.72;5033153;28;20202;-71
2022/10/18 04:44:19;;;;;;;0.60;0.60;;;;;;;6.94;87.77;101041.91;5033658;28;20217;-70
2022/10/18 04:46:46;;;;;;;0.80;0.80;;;;;;;6.92;87.60;101041.03;5033597;28;21684;-70
2022/10/18 04:49:13;;;;;;;0.90;0.90;;;;;;;6.88;87.67;101033.34;5033930;28;20579;-70
2022/10/18 04:51:41;;;;;;;0.80;0.80;;;;;;;6.91;87.61;101049.53;5033456;28;20670;-69
2022/10/18 04:54:08;;;;;;;0.90;0.90;;;;;;;6.88;87.86;101046.97;5033814;28;20201;-70
2022/10/18 04:56:35;;;;;;;0.50;0.50;;;;;;;6.91;87.92;101057.19;5033609;28;20216;-70
2022/10/18 04:59:01;;;;;;;0.70;0.70;;;;;;;6.84;88.09;101046.06;5031839;28;20696;-70
2022/10/18 05:01:28;;;;;;;0.80;0.80;;;;;;;6.93;88.04;101052.94;5033345;28;20201;-70
2022/10/18 05:03:56;;;;;;;0.70;0.70;;;;;;;6.94;88.27;101053.81;5031754;28;20229;-70
2022/10/18 05:06:23;;;;;;;0.70;0.70;;;;;;;6.94;88.52;101052.13;5032918;28;20232;-70
2022/10/18 05:08:51;;;;;;;0.60;0.60;;;;;;;6.97;88.28;101052.16;5031764;28;20198;-69
2022/10/18 05:11:18;;;;;;;0.60;0.60;;;;;;;6.96;88.57;101042.78;5033386;28;20220;-70
2022/10/18 05:13:45;;;;;;;0.70;0.70;;;;;;;6.98;88.86;101046.19;5030402;28;20198;-69
2022/10/18 05:16:11;;;;;;;0.60;0.60;;;;;;;7.02;88.96;101047.09;5033210;28;20213;-70
2022/10/18 05:18:38;;;;;;;0.80;0.80;;;;;;;7.01;89.14;101047.94;5033231;28;20204;-70
2022/10/18 05:21:05;;;;;;;0.83;0.83;;;;;;;7.01;89.51;101055.59;5031937;28;20669;-70
2022/10/18 05:23:32;;;;;;;0.80;0.80;;;;;;;6.95;90.00;101053.81;5032891;28;20197;-69
2022/10/18 05:26:03;;;;;;;0.83;0.83;;;;;;;6.94;90.21;101051.25;5032904;28;20209;-69
2022/10/18 05:28:30;;;;;;;0.60;0.60;;;;;;;6.96;90.47;101050.44;5033116;28;20197;-69
2022/10/18 05:31:00;;;;;;;0.77;0.77;;;;;;;6.94;90.91;101041.91;5032686;28;20213;-69
2022/10/18 05:33:27;;;;;;;0.60;0.60;;;;;;;6.92;91.23;101043.56;5030461;28;20197;-69
2022/10/18 05:35:54;;;;;;;0.63;0.63;;;;;;;6.98;91.33;101045.38;5032958;28;20193;-69
2022/10/18 05:38:21;;;;;;;0.60;0.60;;;;;;;6.91;91.77;101041.91;5030179;28;20201;-70
2022/10/18 05:40:49;;;;;;;0.60;0.60;;;;;;;6.96;92.80;101050.44;5032505;28;20312;-69
2022/10/18 05:43:17;;;;;;;0.70;0.70;;;;;;;7.00;92.93;101052.19;5032226;28;20205;-69
2022/10/18 05:45:48;;;;;;;0.60;0.60;;;;;;;7.03;93.52;101057.31;5032821;28;20214;-70
2022/10/18 05:48:15;;;;;;;0.70;0.70;;;;;;;7.06;93.80;101057.34;5032762;28;20685;-69
2022/10/18 05:50:42;;;;;;;0.60;0.60;;;;;;;6.84;93.71;101009.50;5028000;28;20205;-70
2022/10/18 05:53:09;;;;;;;0.80;0.80;;;;;;;7.20;93.97;101060.03;5028400;28;20201;-69
2022/10/18 05:55:36;;;;;;;0.80;0.80;;;;;;;7.25;93.45;101054.13;5032625;28;20216;-70
2022/10/18 05:58:03;;;;;;;0.60;0.60;;;;;;;7.36;93.36;101057.66;5032797;28;20665;-70
2022/10/18 06:00:31;;;;;;;0.70;0.70;;;;;;;7.42;93.93;101056.00;5032865;28;20201;-70
2022/10/18 06:02:58;;;;;;;0.70;0.70;;;;;;;7.50;93.89;101056.91;5032353;28;20669;-69
2022/10/18 06:05:25;;;;;;;0.70;0.70;;;;;;;7.57;94.34;101048.44;5032061;28;20739;-69
2022/10/18 06:07:52;;;;;;;0.53;0.53;;;;;;;7.65;94.29;101062.16;5031620;28;20198;-70
2022/10/18 06:10:18;;;;;;;0.60;0.60;;;;;;;7.72;94.96;101058.81;5031376;28;20201;-69
2022/10/18 06:12:45;;;;;;;0.67;0.67;;;;;;;7.80;95.93;101064.81;5032225;28;20197;-70
2022/10/18 06:15:12;;;;;;;0.67;0.67;;;;;;;7.90;97.08;101061.47;5023854;28;20202;-70
2022/10/18 06:17:40;;;;;;;0.63;0.63;;;;;;;7.98;98.56;101057.28;5028484;28;20205;-70
2022/10/18 06:20:08;;;;;;;0.63;0.63;;;;;;;7.93;99.44;101038.53;5031865;28;20198;-70
2022/10/18 06:22:35;;;;;;;0.80;0.80;;;;;;;8.08;99.04;101061.59;5032050;28;20702;-70
2022/10/18 06:25:02;;;;;;;0.50;0.50;;;;;;;8.13;99.61;101065.06;5031863;28;20217;-70
2022/10/18 06:27:30;;;;;;;0.70;0.70;;;;;;;8.25;100.00;101057.47;5031723;28;20617;-69
2022/10/18 06:29:57;;;;;;;0.60;0.60;;;;;;;8.36;99.78;101067.78;5031423;28;20201;-70
2022/10/18 06:32:23;;;;;;;0.70;0.70;;;;;;;8.43;99.61;101064.41;5027393;28;20202;-69
2022/10/18 06:34:52;;;;;;;0.50;0.50;;;;;;;8.55;99.33;101059.34;5026892;28;20198;-70
2022/10/18 06:37:18;;;;;;;0.50;0.50;;;;;;;8.66;100.00;101056.84;5029555;28;20324;-70
2022/10/18 06:39:45;;;;;;;0.67;0.67;;;;;;;8.68;100.00;101065.38;5031582;28;20581;-70
2022/10/18 06:42:12;;;;;;;0.60;0.60;;;;;;;8.73;100.00;101068.78;5023886;28;20201;-70
2022/10/18 06:44:39;;;;;;;0.80;0.80;;;;;;;8.84;100.00;101068.00;5031707;28;20589;-70
2022/10/18 06:47:07;;;;;;;0.87;0.87;;;;;;;8.95;100.00;101071.41;5031723;28;20231;-70
2022/10/18 06:49:34;;;;;;;0.50;0.50;;;;;;;9.00;100.00;101063.78;5031377;28;20221;-70
2022/10/18 06:52:02;;;;;;;0.60;0.60;;;;;;;9.04;100.00;101057.81;5031676;28;20197;-70
2022/10/18 06:54:29;;;;;;;0.63;0.63;;;;;;;9.12;100.00;101058.69;5031148;28;20676;-69
2022/10/18 06:56:56;;;;;;;0.63;0.63;;;;;;;9.08;100.00;101036.50;5031366;28;20554;-70
2022/10/18 06:59:23;;;;;;;0.50;0.50;;;;;;;9.33;100.00;101058.75;5030975;28;20217;-70
2022/10/18 07:01:50;;;;;;;0.50;0.50;;;;;;;9.42;100.00;101043.38;5031234;28;20197;-70
2022/10/18 07:04:17;;;;;;;1.07;1.07;;;;;;;9.69;100.00;101054.50;5029670;28;20582;-70
2022/10/18 07:06:44;;;;;;;1.30;1.03;;;;;;;9.85;100.00;101043.38;5029030;28;20229;-70
2022/10/18 07:09:12;;;;;;;0.60;0.60;;;;;;;10.12;100.00;101051.00;5031282;28;20216;-70
2022/10/18 07:11:39;;;;;;;0.50;0.50;;;;;;;10.33;98.57;101043.31;5030826;28;20251;-70
2022/10/18 07:14:06;;;;;;;0.53;0.53;;;;;;;10.57;97.13;101051.75;5031355;28;20209;-70
2022/10/18 07:16:33;;;;;;;0.50;0.50;;;;;;;10.79;96.97;101043.13;5030074;28;20198;-70
2022/10/18 07:19:00;;;;;;;0.60;0.60;;;;;;;11.02;96.08;101047.25;5030980;28;20642;-70
2022/10/18 07:21:27;;;;;;;0.40;0.40;;;;;;;11.25;94.93;101039.41;5031001;28;20197;-71
2022/10/18 07:23:54;;;;;;;0.47;0.47;;;;;;;11.49;93.98;101038.41;5031262;28;20686;-70
2022/10/18 07:26:26;;;;;;;0.70;0.70;;;;;;;11.67;92.89;101039.94;5030351;28;20220;-70
2022/10/18 07:28:56;;;;;;;0.50;0.50;;;;;;;11.73;92.45;101007.38;5031282;28;21628;-70
2022/10/18 07:31:24;;;;;;;0.60;0.60;;;;;;;12.02;92.13;101035.38;5030211;28;20212;-70
2022/10/18 07:33:51;;;;;;;0.47;0.47;;;;;;;12.23;91.42;101027.44;5028817;28;20201;-70
2022/10/18 07:36:19;;;;;;;2.47;1.13;;;;;;;12.46;89.97;101022.91;5027985;28;20627;-70
2022/10/18 07:38:46;;;;;;;0.60;0.60;;;;;;;12.76;88.79;101025.97;5030850;28;20209;-71
2022/10/18 07:41:14;;;;;;;0.40;0.40;;;;;;;13.04;87.15;101019.56;5031176;28;20283;-71
2022/10/18 07:43:47;;;;;;;1.03;1.03;;;;;;;13.27;86.61;101014.94;5030827;28;20692;-72
2022/10/18 07:46:15;;;;;;;0.70;0.70;;;;;;;13.45;85.37;101019.81;5030691;28;20213;-71
2022/10/18 07:48:42;;;;;;;0.50;0.50;;;;;;;13.74;85.21;101024.47;5030741;28;20550;-71
2022/10/18 07:51:09;;;;;;;0.70;0.70;;;;;;;13.83;83.77;101008.00;5030635;28;20284;-71
2022/10/18 07:53:37;;;;;;;0.60;0.60;;;;;;;14.09;83.76;101005.78;5030723;28;20400;-71
2022/10/18 07:56:06;;;;;;;0.80;0.80;;;;;;;14.21;83.71;101002.97;5030527;28;20209;-71
2022/10/18 07:58:33;;;;;;;0.60;0.60;;;;;;;14.41;81.91;101003.44;5032477;28;20196;-71
2022/10/18 08:01:04;;;;;;;0.80;0.80;;;;;;;14.58;80.45;101003.97;5029067;28;20193;-71
2022/10/18 08:03:31;;;;;;;0.73;0.73;;;;;;;14.76;79.74;100992.41;5030555;28;20199;-71
2022/10/18 08:05:58;;;;;;;0.70;0.70;;;;;;;15.03;79.53;100990.91;5029409;28;20582;-71
2022/10/18 08:08:25;;;;;;;0.40;0.40;;;;;;;15.23;78.24;101001.63;5029269;28;20205;-71
2022/10/18 08:10:52;;;;;;;0.50;0.50;;;;;;;15.35;79.06;100993.59;5030919;28;20709;-71
2022/10/18 08:13:19;;;;;;;0.50;0.50;;;;;;;15.57;77.39;100984.44;5030292;28;20208;-72
2022/10/18 08:15:46;;;;;;;0.60;0.60;;;;;;;15.72;77.55;100989.25;5030312;28;20198;-71
2022/10/18 08:18:14;;;;;;;0.40;0.40;;;;;;;15.84;77.64;100976.84;5005347;28;20637;-71
2022/10/18 08:20:43;;;;;;;0.53;0.53;;;;;;;15.99;75.20;100979.06;5030214;28;20211;-72
2022/10/18 08:23:10;;;;;;;0.43;0.43;;;;;;;16.02;75.98;100971.22;5030237;28;20205;-70
2022/10/18 08:25:37;;;;;;;0.60;0.60;;;;;;;16.11;74.62;100979.56;5030282;28;20273;-71
2022/10/18 08:28:04;;;;;;;0.50;0.50;;;;;;;16.04;74.66;100940.97;5026820;28;20201;-72
2022/10/18 08:30:31;;;;;;;0.60;0.60;;;;;;;16.33;75.88;100971.19;5027556;28;20202;-71
2022/10/18 08:32:58;;;;;;;0.50;0.50;;;;;;;16.49;73.74;100973.28;5030383;28;20620;-71
2022/10/18 08:35:26;;;;;;;0.40;0.40;;;;;;;16.65;72.91;100968.53;5028673;28;20194;-71
2022/10/18 08:37:53;;;;;;;0.50;0.50;;;;;;;16.76;72.22;100953.53;5031958;28;20228;-71
2022/10/18 08:40:20;;;;;;;0.67;0.67;;;;;;;16.84;71.63;100948.94;5033915;28;20197;-71
2022/10/18 08:43:03;;;;;;;0.60;0.60;;;;;;;16.89;71.02;100946.22;5033829;28;20205;-71
2022/10/18 08:45:34;;;;;;;0.50;0.50;;;;;;;17.01;71.48;100953.59;5033834;28;20213;-71
2022/10/18 08:48:02;;;;;;;1.93;0.80;;;;;;;17.06;69.42;100938.78;5033706;28;20204;-72
2022/10/18 08:50:35;;;;;;;0.70;0.70;;;;;;;17.26;69.92;100941.53;5033681;28;20197;-72
2022/10/18 08:53:13;;;;;;;0.90;0.90;;;;;;;17.31;67.36;100935.31;5033903;28;20205;-72
2022/10/18 08:55:45;;;;;;;0.30;0.30;;;;;;;17.42;68.42;100939.28;5033380;28;20821;-74
2022/10/18 08:58:17;;;;;;;0.50;0.50;;;;;;;17.49;68.65;100928.66;5027406;28;20437;-70
2022/10/18 09:00:50;;;;;;;0.60;0.60;;;;;;;17.72;68.97;100926.16;5032958;28;20216;-70
2022/10/18 09:03:29;;;;;;;0.70;0.70;;;;;;;17.86;65.18;100928.25;5026605;28;20736;-71
2022/10/18 09:06:05;;;;;;;0.40;0.40;;;;;;;17.96;66.36;100915.81;5030479;28;20233;-71
2022/10/18 09:08:49;;;;;;;0.50;0.50;;;;;;;18.26;66.57;100922.44;5032532;28;20203;-70
2022/10/18 09:11:26;;;;;;;0.50;0.50;;;;;;;18.51;63.70;100920.66;5033041;28;20204;-69
2022/10/18 09:14:11;;;;;;;0.50;0.50;;;;;;;18.63;64.12;100920.19;5034022;28;20208;-70
2022/10/18 09:16:50;;;;;;;0.57;0.57;;;;;;;18.53;62.38;100916.25;5031469;28;20197;-70
2022/10/18 09:19:28;;;;;;;0.70;0.70;;;;;;;18.54;63.47;100914.50;5030024;28;20287;-70
2022/10/18 09:22:01;;;;;;;0.40;0.40;;;;;;;18.49;63.87;100912.03;5030800;28;20198;-69
2022/10/18 09:24:38;;;;;;;0.53;0.53;;;;;;;18.60;62.87;100909.91;5029516;28;20208;-69
2022/10/18 09:27:15;;;;;;;0.50;0.50;;;;;;;18.78;62.45;100903.97;5029865;28;20275;-69
2022/10/18 09:29:53;;;;;;;0.50;0.50;;;;;;;18.85;63.07;100895.03;5030274;28;20202;-70
2022/10/18 09:32:33;;;;;;;0.43;0.43;;;;;;;18.83;62.20;100894.25;5031694;28;20204;-68
2022/10/18 09:35:04;;;;;;;0.50;0.50;;;;;;;18.97;61.54;100885.03;5027969;28;20205;-70
2022/10/18 09:37:34;;;;;;;0.40;0.40;;;;;;;19.02;61.00;100883.94;5030068;28;20201;-70
2022/10/18 09:40:13;;;;;;;0.53;0.53;;;;;;;19.19;60.12;100875.47;5026782;28;20212;-70
2022/10/18 09:42:47;;;;;;;0.40;0.40;;;;;;;19.14;58.92;100873.03;5032149;28;20205;-70
2022/10/18 09:45:23;;;;;;;0.50;0.50;;;;;;;19.11;58.91;100873.16;5030176;28;20227;-70
2022/10/18 09:48:01;;;;;;;0.50;0.50;;;;;;;19.21;59.52;100863.22;5029670;28;20612;-71
2022/10/18 09:50:36;;;;;;;0.50;0.50;;;;;;;19.21;60.26;100848.47;5031678;28;20209;-74
2022/10/18 09:53:12;;;;;;;0.43;0.43;;;;;;;19.44;59.29;100865.72;5031709;28;20197;-72
2022/10/18 09:55:51;;;;;;;0.60;0.60;;;;;;;19.35;59.04;100856.50;5030148;28;20560;-70
2022/10/18 09:58:22;;;;;;;1.30;0.60;;;;;;;19.31;58.60;100846.31;5029539;28;20213;-68
2022/10/18 10:00:51;;;;;;;0.50;0.50;;;;;;;19.34;59.13;100841.84;5019518;28;20226;-69
2022/10/18 10:03:18;;;;;;;0.43;0.43;;;;;;;19.37;57.81;100833.91;5030793;28;20589;-70
2022/10/18 10:05:45;;;;;;;0.60;0.60;;;;;;;19.35;57.04;100837.50;5027657;28;20574;-70
2022/10/18 10:08:13;;;;;;;0.57;0.57;;;;;;;19.21;57.43;100824.22;5030391;28;20205;-69
2022/10/18 10:10:47;;;;;;;0.47;0.47;;;;;;;19.33;58.66;100823.69;5027480;28;20212;-69
2022/10/18 10:13:17;;;;;;;0.40;0.40;;;;;;;19.46;56.65;100811.88;5030717;28;20208;-70
2022/10/18 10:15:52;;;;;;;0.40;0.40;;;;;;;19.45;56.38;100814.56;5033082;28;20206;-71
2022/10/18 10:18:21;;;;;;;0.47;0.47;;;;;;;19.49;56.68;100806.53;5023481;28;20584;-70
2022/10/18 10:20:52;;;;;;;0.40;0.40;;;;;;;19.58;60.40;100795.69;5032166;28;20750;-72
2022/10/18 10:23:23;;;;;;;0.40;0.40;;;;;;;19.69;57.40;100790.88;5031498;28;20593;-71
2022/10/18 10:25:52;;;;;;;0.50;0.50;;;;;;;19.80;57.69;100791.25;5028717;28;20343;-71
2022/10/18 10:28:22;;;;;;;0.53;0.53;;;;;;;19.90;54.68;100779.47;5030710;28;20206;-71
2022/10/18 10:30:49;;;;;;;0.50;0.50;;;;;;;20.02;54.72;100779.81;5030131;28;20197;-73
2022/10/18 10:33:32;;;;;;;0.40;0.40;;;;;;;20.02;54.98;100778.06;5032886;28;20225;-75
2022/10/18 10:36:00;;;;;;;0.67;0.67;;;;;;;20.11;54.30;100763.75;5029191;28;20206;-76
2022/10/18 10:38:31;;;;;;;0.47;0.47;;;;;;;20.20;54.31;100758.09;5031135;28;20206;-72
2022/10/18 10:40:59;;;;;;;0.47;0.47;;;;;;;20.13;53.49;100741.13;5033638;28;20264;-73
2022/10/18 10:43:29;;;;;;;0.50;0.50;;;;;;;20.08;54.66;100750.88;5028338;28;20670;-70
2022/10/18 10:46:02;;;;;;;0.50;0.50;;;;;;;20.06;55.59;100740.56;5033654;28;20221;-72
2022/10/18 10:48:32;;;;;;;0.50;0.50;;;;;;;20.21;54.78;100739.81;5030103;28;20558;-72
2022/10/18 10:51:06;;;;;;;0.57;0.57;;;;;;;20.31;54.14;100735.03;5031830;28;20212;-72
2022/10/18 10:53:38;;;;;;;0.50;0.50;;;;;;;20.42;53.35;100717.09;5030369;28;20653;-72
2022/10/18 10:56:06;;;;;;;0.30;0.30;;;;;;;20.46;55.75;100703.00;5027366;28;20290;-72
2022/10/18 10:58:40;;;;;;;0.60;0.60;;;;;;;20.60;51.90;100708.38;5029207;28;20218;-71
2022/10/18 11:01:29;;;;;;;0.40;0.40;;;;;;;20.62;52.15;100700.47;5029241;28;20214;-73
2022/10/18 11:03:59;;;;;;;0.60;0.60;;;;;;;20.58;53.86;100693.75;5030379;28;20218;-72
2022/10/18 11:06:34;;;;;;;0.50;0.50;;;;;;;20.60;52.44;100689.28;5024893;28;20227;-72
2022/10/18 11:09:10;;;;;;;0.60;0.60;;;;;;;20.69;52.23;100679.22;5028268;28;20208;-72
2022/10/18 11:11:45;;;;;;;0.30;0.30;;;;;;;20.77;49.90;100686.66;5026691;28;20221;-71
2022/10/18 11:14:18;;;;;;;0.53;0.53;;;;;;;20.66;46.54;100665.50;5030471;28;20225;-71
2022/10/18 11:16:54;;;;;;;0.40;0.40;;;;;;;20.59;46.91;100667.59;5031446;28;20208;-72
2022/10/18 11:19:39;;;;;;;0.40;0.40;;;;;;;20.64;45.41;100659.56;5028714;28;20215;-72
2022/10/18 11:22:13;;;;;;;0.30;0.30;;;;;;;20.54;46.61;100646.16;5026546;28;20624;-72
2022/10/18 11:24:41;;;;;;;0.50;0.50;;;;;;;20.53;45.79;100654.03;5028291;28;20209;-72
2022/10/18 11:27:16;;;;;;;0.40;0.40;;;;;;;20.50;45.30;100642.00;5030190;28;20680;-71
2022/10/18 11:29:55;;;;;;;0.40;0.40;;;;;;;20.54;43.37;100638.34;5030807;28;20198;-71
2022/10/18 11:32:30;;;;;;;0.50;0.50;;;;;;;20.55;39.65;100626.16;5031759;28;20203;-72
2022/10/18 11:35:19;;;;;;;0.60;0.60;;;;;;;20.67;40.67;100623.75;5030586;28;20197;-71
2022/10/18 11:38:04;;;;;;;0.50;0.50;;;;;;;20.78;39.83;100621.41;5029378;28;20209;-71
2022/10/18 11:40:54;;;;;;;0.50;0.50;;;;;;;20.88;39.95;100621.75;5029105;28;20200;-73